»·PEaware :: WAT590 KPHX-KLAX

WAT590 :: KPHX-KLAX

FLIGHT INFORMATION

Flight Status: Arrived
Operator:
Walker Air Transport
More flights by this operator :: More flights under this callsign
Pilot: Anonymous 10623 (10623)
Aircraft: CANADAIR CL-600 CRJ-700
(CRJ7)
More flights by this aircraft type
Origin: KPHX Phoenix Sky Harbor Intl
United States
Destination: KLAX Los Angeles Intl
United States
More flights between these airports :: More routes between these airports
Route: KEENS2 MESSI ESTWD HLYWD1
File this flight plan on PilotEdge
Remarks:
Altitude:
(Current/Filed)
36,000ft
Speed:
(Current/Filed)
433kts
Departed: 19-Mar-21 04:39 PM
Arrived: 19-Mar-21 05:42 PM
Distance/Time
Traveled:
321nm/1:03
Distance/Time
To Go:
Arrived

Flight Plot

Page will automatically refresh every two minutes.

Flight plan parsing failed; only flown route is shown


Map Options




Map Legend


Flown Route
Filed Route
Departure Airport
Arrival Airport
Navaid (VOR, NDB)
Fix

Horizontal Profiles

Position Reports

Time Latitude Longitude Heading Altitude Ground
Speed
19-Mar-21 16:08 33.437017 -111.994872 93 1138ft 0kts
19-Mar-21 16:09 33.437017 -111.994872 93 1138ft 0kts
19-Mar-21 16:10 33.437017 -111.994872 93 1138ft 0kts
19-Mar-21 16:11 33.437017 -111.994872 93 1138ft 0kts
19-Mar-21 16:12 33.437017 -111.994872 93 1138ft 0kts
19-Mar-21 16:13 33.437017 -111.994872 93 1138ft 0kts
19-Mar-21 16:14 33.437017 -111.994872 93 1138ft 0kts
19-Mar-21 16:15 33.437017 -111.994872 93 1138ft 0kts
19-Mar-21 16:16 33.437017 -111.994872 93 1138ft 0kts
19-Mar-21 16:17 33.437017 -111.994872 93 1138ft 0kts
19-Mar-21 16:18 33.437017 -111.994872 93 1138ft 0kts
19-Mar-21 16:19 33.437017 -111.994872 93 1138ft 0kts
19-Mar-21 16:20 33.437017 -111.994872 93 1138ft 0kts
19-Mar-21 16:21 33.436964 -111.995380 51 1138ft 3kts
19-Mar-21 16:22 33.437149 -111.995354 4 1138ft 0kts
19-Mar-21 16:23 33.437149 -111.995354 4 1138ft 0kts
19-Mar-21 16:24 33.437149 -111.995354 4 1138ft 0kts
19-Mar-21 16:25 33.437149 -111.995354 4 1138ft 0kts
19-Mar-21 16:26 33.437149 -111.995354 4 1138ft 0kts
19-Mar-21 16:27 33.437149 -111.995354 4 1138ft 0kts
19-Mar-21 16:28 33.437149 -111.995354 4 1138ft 0kts
19-Mar-21 16:29 33.437683 -111.995335 359 1139ft 6kts
19-Mar-21 16:30 33.439037 -111.995772 283 1141ft 10kts
19-Mar-21 16:31 33.439058 -112.002301 270 1134ft 28kts
19-Mar-21 16:32 33.438970 -112.011568 268 1130ft 25kts
19-Mar-21 16:33 33.438993 -112.020194 271 1122ft 26kts
19-Mar-21 16:34 33.439039 -112.025950 269 1119ft 15kts
19-Mar-21 16:35 33.439585 -112.029688 1 1119ft 7kts
19-Mar-21 16:36 33.439807 -112.029678 1 1119ft 3kts
19-Mar-21 16:37 33.440862 -112.028768 90 1120ft 18kts
19-Mar-21 16:38 33.441671 -111.981431 86 2724ft 222kts
19-Mar-21 16:39 33.439762 -111.906114 105 6269ft 239kts
19-Mar-21 16:40 33.398483 -111.844360 175 7786ft 250kts
19-Mar-21 16:41 33.349070 -111.887576 269 9808ft 239kts
19-Mar-21 16:42 33.361115 -111.967657 272 11609ft 263kts
19-Mar-21 16:43 33.369650 -112.064577 277 12430ft 322kts
19-Mar-21 16:44 33.387259 -112.169509 276 14998ft 329kts
19-Mar-21 16:45 33.403039 -112.277577 276 17968ft 333kts
19-Mar-21 16:46 33.418406 -112.388022 276 21406ft 343kts
19-Mar-21 16:47 33.435343 -112.501846 278 24256ft 357kts
19-Mar-21 16:48 33.452130 -112.617992 274 26646ft 368kts
19-Mar-21 16:49 33.451577 -112.741780 269 28764ft 378kts
19-Mar-21 16:50 33.471437 -112.859342 291 31016ft 380kts
19-Mar-21 16:51 33.514260 -112.973774 289 32967ft 377kts
19-Mar-21 16:52 33.554079 -113.089934 289 34550ft 378kts
19-Mar-21 16:53 33.594105 -113.206679 291 35720ft 387kts
19-Mar-21 16:54 33.636996 -113.328253 290 35959ft 400kts
19-Mar-21 16:55 33.676899 -113.444089 290 35951ft 365kts
19-Mar-21 16:56 33.715265 -113.556295 289 35946ft 368kts
19-Mar-21 16:57 33.754110 -113.670785 290 35949ft 376kts
19-Mar-21 16:58 33.794292 -113.787493 290 35955ft 381kts
19-Mar-21 16:59 33.835147 -113.906151 290 35945ft 385kts
19-Mar-21 17:00 33.875080 -114.025994 291 35920ft 393kts
19-Mar-21 17:01 33.914025 -114.150602 282 35962ft 413kts
19-Mar-21 17:02 33.934259 -114.289845 281 35942ft 427kts
19-Mar-21 17:03 33.958300 -114.429546 282 35927ft 427kts
19-Mar-21 17:04 33.981540 -114.568716 282 35920ft 424kts
19-Mar-21 17:05 34.004936 -114.708490 282 35933ft 425kts
19-Mar-21 17:06 34.027736 -114.846232 282 35933ft 422kts
19-Mar-21 17:07 34.050301 -114.985629 282 35945ft 424kts
19-Mar-21 17:08 34.072543 -115.124756 283 35940ft 423kts
19-Mar-21 17:09 34.095757 -115.263347 283 35952ft 423kts
19-Mar-21 17:10 34.117533 -115.402888 282 35939ft 423kts
19-Mar-21 17:11 34.139547 -115.540765 283 35949ft 422kts
19-Mar-21 17:12 34.160526 -115.680067 277 35959ft 425kts
19-Mar-21 17:13 34.151392 -115.822025 266 35960ft 431kts
19-Mar-21 17:14 34.136588 -115.964562 268 35937ft 428kts
19-Mar-21 17:15 34.123065 -116.107216 266 35202ft 420kts
19-Mar-21 17:16 34.108687 -116.240301 270 33088ft 394kts
19-Mar-21 17:17 34.096541 -116.374079 269 31774ft 403kts
19-Mar-21 17:18 34.080847 -116.503410 271 30833ft 388kts
19-Mar-21 17:19 34.069418 -116.629805 274 27850ft 359kts
19-Mar-21 17:20 34.058189 -116.740504 272 26026ft 326kts
19-Mar-21 17:21 34.047958 -116.848981 272 23186ft 351kts
19-Mar-21 17:23 34.035555 -116.968615 271 19947ft 347kts
19-Mar-21 17:24 34.029460 -117.071774 255 19173ft 337kts
19-Mar-21 17:25 34.008144 -117.176194 269 17873ft 321kts
19-Mar-21 17:26 33.997225 -117.282991 268 16720ft 326kts
19-Mar-21 17:27 33.984039 -117.385192 268 15353ft 319kts
19-Mar-21 17:28 33.973115 -117.489285 277 13412ft 326kts
19-Mar-21 17:29 33.989421 -117.584968 290 11653ft 306kts
19-Mar-21 17:30 34.008020 -117.677238 289 10203ft 268kts
19-Mar-21 17:31 34.001529 -117.759627 264 8838ft 262kts
19-Mar-21 17:32 33.993249 -117.842663 268 7441ft 244kts
19-Mar-21 17:33 33.987154 -117.914709 264 6047ft 240kts
19-Mar-21 17:34 33.979506 -117.985287 263 4640ft 235kts
19-Mar-21 17:35 33.972219 -118.058151 263 3718ft 207kts
19-Mar-21 17:36 33.966219 -118.121417 263 3683ft 190kts
19-Mar-21 17:37 33.959352 -118.189640 263 2345ft 221kts
19-Mar-21 17:38 33.954373 -118.251670 267 1653ft 199kts
19-Mar-21 17:39 33.948000 -118.307252 262 1029ft 156kts
19-Mar-21 17:40 33.943767 -118.345146 262 643ft 135kts
19-Mar-21 17:41 33.939693 -118.382779 261 199ft 121kts
19-Mar-21 17:42 33.938575 -118.399696 301 123ft 0kts
19-Mar-21 17:43 33.938697 -118.400499 270 123ft 8kts
19-Mar-21 17:44 33.939297 -118.402961 353 123ft 9kts
19-Mar-21 17:44 33.940269 -118.403487 255 123ft 3kts
19-Mar-21 17:45 33.940239 -118.403634 256 123ft 0kts
19-Mar-21 17:47 33.940239 -118.403634 256 123ft 0kts
19-Mar-21 17:48 33.940239 -118.403634 256 123ft 0kts

Navigation Log

Ident Type
Flight plan parsing failed, navigation log unavailable